Seymour Johnson Air Force Base
KGSB : now visible

Airfield :











YOU CAN JOIN US ON...

 
LOGIN :

Register | Disclaimer

   EN    FR    IT 

 









Legend :    VFR   Marginal VFR   IFR   Intensive IFR   Very Intensive IFR
Visi :
Ceiling :
>= 8 km
>= 3000ft
5 to 8 km
1000 to 3000 ft
1500m to 5 km
500 to 1000 ft
800 to 1500m
200 to 500 ft
< 800m
< 200 ft
Symbols :   Thunderstorms  Fog  Heavy snow  Heavy precipitations  Wind > 20 kt






- Airport Elevation : 109 ft


KGSB - Seymour Johnson Air Force Base

CURRENT METAR :
  • 201424Z 04008KT 360V070 10SM BKN024 22/15 A3000 RMK AO2A SLP162 $

EXPIRED METARs :
  • 201355Z 03005KT 10SM BKN021 21/15 A3000 RMK AO2A SLP162 T02080151 $
  • 201348Z 04008KT 10SM BKN021 21/15 A3000 RMK AO2A SLP162 $
  • 201310Z COR 05007KT 10SM BKN017 20/15 A3000 RMK AO2A SLP162 $ COR 1310
  • 201155Z 03005KT 10SM FEW013 BKN022 18/15 A2998 RMK AO2A SLP155 T01770151 10177 20161 53009 $
  • 201055Z 01006KT 10SM SCT022 17/15 A2997 RMK AO2A SLPNO T01660148 $

TAF AMD TAF KGSB
Valid from the 20 at 13:00 until the 21 at 18:00 UTC


201328Z 2013/2118 03004KT 9999 BKN017 QNH2995INS
TEMPO 2013/2015 SCT018 BKN022
BECMG 2014/2015 06009KT 9999 SCT028 SCT250 QNH2993INS
BECMG 2023/2024 08004KT 9999 FEW040 SCT220 QNH2996INS
TEMPO 2109/2113 05004KT 8000 BR BKN010 TX24/2020Z TN15/2109Z
KZDC FIR / North America



MET'MAP, your aeronautical weather chart ! - Copyright ORBIFLY December 2007 - Disclaimer

ORBIFLY MET'MAP TEAM :

Programming & Development : Alexandra Zaïnal
Original concept : Baudouin d'Aumeries
Technical & hardware support : Manuel Goepfert
Assistance : Marc-Olivier Méhu




SOURCES & CREDITS :

   NOAA       Earth
Advisory